Carlsbad (CRQ/KCRQ)

Map

Destinations

Information

Location
Carlsbad, CA
Local Time
20:52 / 8:52 pm
GMT Time
03:52 / 3:52 am
Gates
Unassigned
No FAA reported delays
METAR KCRQ 170253Z AUTO 24004KT 10SM CLR 19/16 A2994 RMK AO2 SLP136 T01890156 53001
TAF KCRQ 162332Z 1700/1724 24009KT P6SM SKC FM170100 VRB04KT P6SM SCT015 FM170530 VRB04KT P6SM OVC015 FM171600 VRB04KT P6SM SCT015 FM171900 24009KT P6SM FEW020